sensor_id;sensor_type;location;lat;lon;timestamp;P1;durP1;ratioP1;P2;durP2;ratioP2
15404;SDS011;7801;48.124;11.590;2022-08-04T00:00:04;0.77;;;0.77;;
15404;SDS011;7801;48.124;11.590;2022-08-04T00:05:38;0.57;;;0.57;;
15404;SDS011;7801;48.124;11.590;2022-08-04T00:10:59;0.80;;;0.80;;
15404;SDS011;7801;48.124;11.590;2022-08-04T00:13:27;0.30;;;0.30;;
15404;SDS011;7801;48.124;11.590;2022-08-04T00:15:58;0.97;;;0.50;;
15404;SDS011;7801;48.124;11.590;2022-08-04T00:18:40;0.80;;;0.80;;
15404;SDS011;7801;48.124;11.590;2022-08-04T00:21:11;1.07;;;1.07;;
15404;SDS011;7801;48.124;11.590;2022-08-04T00:23:38;0.90;;;0.90;;
15404;SDS011;7801;48.124;11.590;2022-08-04T00:26:08;4.63;;;0.67;;
15404;SDS011;7801;48.124;11.590;2022-08-04T00:28:34;1.33;;;0.97;;
15404;SDS011;7801;48.124;11.590;2022-08-04T00:31:08;1.40;;;0.77;;
15404;SDS011;7801;48.124;11.590;2022-08-04T00:33:34;0.40;;;0.40;;
15404;SDS011;7801;48.124;11.590;2022-08-04T00:36:02;0.73;;;0.73;;
15404;SDS011;7801;48.124;11.590;2022-08-04T00:38:30;0.87;;;0.87;;
15404;SDS011;7801;48.124;11.590;2022-08-04T00:43:31;0.87;;;0.60;;
15404;SDS011;7801;48.124;11.590;2022-08-04T01:00:31;0.50;;;0.50;;
15404;SDS011;7801;48.124;11.590;2022-08-04T01:11:58;1.07;;;0.97;;
15404;SDS011;7801;48.124;11.590;2022-08-04T01:14:41;0.70;;;0.70;;
15404;SDS011;7801;48.124;11.590;2022-08-04T01:17:20;0.40;;;0.40;;
15404;SDS011;7801;48.124;11.590;2022-08-04T01:20:10;0.47;;;0.47;;
15404;SDS011;7801;48.124;11.590;2022-08-04T01:23:26;0.40;;;0.40;;
15404;SDS011;7801;48.124;11.590;2022-08-04T01:26:01;0.33;;;0.33;;
15404;SDS011;7801;48.124;11.590;2022-08-04T01:34:02;1.40;;;1.30;;
15404;SDS011;7801;48.124;11.590;2022-08-04T01:36:33;0.70;;;0.70;;
15404;SDS011;7801;48.124;11.590;2022-08-04T01:38:59;0.57;;;0.57;;
15404;SDS011;7801;48.124;11.590;2022-08-04T01:41:51;0.40;;;0.40;;
15404;SDS011;7801;48.124;11.590;2022-08-04T01:44:18;1.30;;;1.20;;
15404;SDS011;7801;48.124;11.590;2022-08-04T01:46:45;0.47;;;0.47;;
15404;SDS011;7801;48.124;11.590;2022-08-04T01:49:14;0.57;;;0.57;;
15404;SDS011;7801;48.124;11.590;2022-08-04T01:51:41;0.47;;;0.47;;
15404;SDS011;7801;48.124;11.590;2022-08-04T01:54:09;1.00;;;0.60;;
15404;SDS011;7801;48.124;11.590;2022-08-04T01:56:36;0.83;;;0.83;;
15404;SDS011;7801;48.124;11.590;2022-08-04T01:59:02;0.73;;;0.70;;
15404;SDS011;7801;48.124;11.590;2022-08-04T02:01:27;0.67;;;0.60;;
15404;SDS011;7801;48.124;11.590;2022-08-04T02:03:53;0.30;;;0.30;;
15404;SDS011;7801;48.124;11.590;2022-08-04T02:11:40;0.70;;;0.70;;
15404;SDS011;7801;48.124;11.590;2022-08-04T02:17:09;0.50;;;0.50;;
15404;SDS011;7801;48.124;11.590;2022-08-04T02:19:35;2.00;;;0.60;;
15404;SDS011;7801;48.124;11.590;2022-08-04T02:22:19;0.40;;;0.40;;
15404;SDS011;7801;48.124;11.590;2022-08-04T02:24:49;2.00;;;0.60;;
15404;SDS011;7801;48.124;11.590;2022-08-04T02:27:23;0.70;;;0.70;;
15404;SDS011;7801;48.124;11.590;2022-08-04T02:30:02;0.60;;;0.60;;
15404;SDS011;7801;48.124;11.590;2022-08-04T02:32:29;0.30;;;0.30;;
15404;SDS011;7801;48.124;11.590;2022-08-04T02:37:57;0.23;;;0.23;;
15404;SDS011;7801;48.124;11.590;2022-08-04T02:40:43;0.43;;;0.43;;
15404;SDS011;7801;48.124;11.590;2022-08-04T02:43:10;0.83;;;0.83;;
15404;SDS011;7801;48.124;11.590;2022-08-04T02:45:36;0.60;;;0.60;;
15404;SDS011;7801;48.124;11.590;2022-08-04T02:48:06;1.27;;;0.67;;
15404;SDS011;7801;48.124;11.590;2022-08-04T02:50:34;1.10;;;1.00;;
15404;SDS011;7801;48.124;11.590;2022-08-04T02:53:02;1.93;;;1.27;;
15404;SDS011;7801;48.124;11.590;2022-08-04T02:55:28;0.40;;;0.40;;
15404;SDS011;7801;48.124;11.590;2022-08-04T02:57:55;1.40;;;0.67;;
15404;SDS011;7801;48.124;11.590;2022-08-04T03:00:22;0.40;;;0.40;;
15404;SDS011;7801;48.124;11.590;2022-08-04T03:11:03;0.90;;;0.90;;
15404;SDS011;7801;48.124;11.590;2022-08-04T03:29:54;0.60;;;0.60;;
15404;SDS011;7801;48.124;11.590;2022-08-04T03:32:31;0.17;;;0.17;;
15404;SDS011;7801;48.124;11.590;2022-08-04T03:55:17;0.97;;;0.97;;
15404;SDS011;7801;48.124;11.590;2022-08-04T03:57:50;0.60;;;0.60;;
15404;SDS011;7801;48.124;11.590;2022-08-04T04:00:30;0.53;;;0.53;;
15404;SDS011;7801;48.124;11.590;2022-08-04T04:24:59;0.70;;;0.70;;
15404;SDS011;7801;48.124;11.590;2022-08-04T04:30:37;0.57;;;0.57;;
15404;SDS011;7801;48.124;11.590;2022-08-04T04:36:07;1.03;;;0.67;;
15404;SDS011;7801;48.124;11.590;2022-08-04T04:38:51;0.70;;;0.70;;
15404;SDS011;7801;48.124;11.590;2022-08-04T04:47:08;4.77;;;1.27;;
15404;SDS011;7801;48.124;11.590;2022-08-04T04:49:40;0.40;;;0.40;;
15404;SDS011;7801;48.124;11.590;2022-08-04T04:57:58;0.67;;;0.67;;
15404;SDS011;7801;48.124;11.590;2022-08-04T05:00:30;1.73;;;0.90;;
15404;SDS011;7801;48.124;11.590;2022-08-04T05:03:27;0.47;;;0.47;;
15404;SDS011;7801;48.124;11.590;2022-08-04T05:08:50;0.90;;;0.90;;
15404;SDS011;7801;48.124;11.590;2022-08-04T05:11:33;0.90;;;0.90;;
15404;SDS011;7801;48.124;11.590;2022-08-04T05:22:41;1.40;;;0.90;;
15404;SDS011;7801;48.124;11.590;2022-08-04T05:25:18;0.23;;;0.23;;
15404;SDS011;7801;48.124;11.590;2022-08-04T05:27:50;1.03;;;1.03;;
15404;SDS011;7801;48.124;11.590;2022-08-04T05:30:27;0.53;;;0.53;;
15404;SDS011;7801;48.124;11.590;2022-08-04T05:33:01;0.63;;;0.57;;
15404;SDS011;7801;48.124;11.590;2022-08-04T05:35:31;4.53;;;1.77;;
15404;SDS011;7801;48.124;11.590;2022-08-04T05:38:00;1.17;;;1.10;;
15404;SDS011;7801;48.124;11.590;2022-08-04T05:40:28;7.63;;;1.93;;
15404;SDS011;7801;48.124;11.590;2022-08-04T05:42:54;1.40;;;0.93;;
15404;SDS011;7801;48.124;11.590;2022-08-04T05:45:20;1.00;;;1.00;;
15404;SDS011;7801;48.124;11.590;2022-08-04T05:47:48;0.70;;;0.70;;
15404;SDS011;7801;48.124;11.590;2022-08-04T05:50:15;0.70;;;0.70;;
15404;SDS011;7801;48.124;11.590;2022-08-04T05:52:41;1.50;;;1.13;;
15404;SDS011;7801;48.124;11.590;2022-08-04T05:55:08;1.10;;;1.07;;
15404;SDS011;7801;48.124;11.590;2022-08-04T05:57:37;0.70;;;0.70;;
15404;SDS011;7801;48.124;11.590;2022-08-04T06:00:06;0.30;;;0.30;;
15404;SDS011;7801;48.124;11.590;2022-08-04T06:02:33;1.00;;;1.00;;
15404;SDS011;7801;48.124;11.590;2022-08-04T06:04:59;0.60;;;0.60;;
15404;SDS011;7801;48.124;11.590;2022-08-04T06:07:26;0.50;;;0.50;;
15404;SDS011;7801;48.124;11.590;2022-08-04T06:09:52;1.17;;;1.17;;
15404;SDS011;7801;48.124;11.590;2022-08-04T06:12:20;0.50;;;0.50;;
15404;SDS011;7801;48.124;11.590;2022-08-04T06:14:47;0.33;;;0.33;;
15404;SDS011;7801;48.124;11.590;2022-08-04T06:17:20;0.43;;;0.43;;
15404;SDS011;7801;48.124;11.590;2022-08-04T06:19:57;1.10;;;0.83;;
15404;SDS011;7801;48.124;11.590;2022-08-04T06:22:25;0.50;;;0.50;;
15404;SDS011;7801;48.124;11.590;2022-08-04T06:24:53;0.80;;;0.50;;
15404;SDS011;7801;48.124;11.590;2022-08-04T06:27:20;0.70;;;0.70;;
15404;SDS011;7801;48.124;11.590;2022-08-04T06:29:49;0.93;;;0.93;;
15404;SDS011;7801;48.124;11.590;2022-08-04T06:32:15;0.80;;;0.80;;
15404;SDS011;7801;48.124;11.590;2022-08-04T06:34:54;0.83;;;0.83;;
15404;SDS011;7801;48.124;11.590;2022-08-04T06:37:21;0.53;;;0.53;;
15404;SDS011;7801;48.124;11.590;2022-08-04T06:39:47;1.00;;;1.00;;
15404;SDS011;7801;48.124;11.590;2022-08-04T06:42:14;0.50;;;0.50;;
15404;SDS011;7801;48.124;11.590;2022-08-04T06:44:41;0.40;;;0.40;;
15404;SDS011;7801;48.124;11.590;2022-08-04T06:47:08;0.60;;;0.60;;
15404;SDS011;7801;48.124;11.590;2022-08-04T06:49:35;1.37;;;1.27;;
15404;SDS011;7801;48.124;11.590;2022-08-04T06:52:02;1.10;;;1.10;;
15404;SDS011;7801;48.124;11.590;2022-08-04T06:54:29;0.53;;;0.53;;
15404;SDS011;7801;48.124;11.590;2022-08-04T06:56:55;1.07;;;1.07;;
15404;SDS011;7801;48.124;11.590;2022-08-04T06:59:22;0.73;;;0.73;;
15404;SDS011;7801;48.124;11.590;2022-08-04T07:01:48;0.70;;;0.60;;
15404;SDS011;7801;48.124;11.590;2022-08-04T07:04:15;0.80;;;0.80;;
15404;SDS011;7801;48.124;11.590;2022-08-04T07:06:40;1.97;;;1.87;;
15404;SDS011;7801;48.124;11.590;2022-08-04T07:09:06;0.90;;;0.90;;
15404;SDS011;7801;48.124;11.590;2022-08-04T07:11:32;0.67;;;0.67;;
15404;SDS011;7801;48.124;11.590;2022-08-04T07:13:58;3.43;;;1.30;;
15404;SDS011;7801;48.124;11.590;2022-08-04T07:16:24;0.80;;;0.80;;
15404;SDS011;7801;48.124;11.590;2022-08-04T07:18:49;0.70;;;0.70;;
15404;SDS011;7801;48.124;11.590;2022-08-04T07:21:21;0.90;;;0.90;;
15404;SDS011;7801;48.124;11.590;2022-08-04T07:23:48;0.83;;;0.83;;
15404;SDS011;7801;48.124;11.590;2022-08-04T07:26:14;0.60;;;0.60;;
15404;SDS011;7801;48.124;11.590;2022-08-04T07:28:41;0.40;;;0.40;;
15404;SDS011;7801;48.124;11.590;2022-08-04T07:31:08;0.33;;;0.33;;
15404;SDS011;7801;48.124;11.590;2022-08-04T07:33:35;0.80;;;0.80;;
15404;SDS011;7801;48.124;11.590;2022-08-04T07:36:02;1.03;;;1.00;;
15404;SDS011;7801;48.124;11.590;2022-08-04T07:38:27;1.03;;;1.03;;
15404;SDS011;7801;48.124;11.590;2022-08-04T07:40:53;0.43;;;0.43;;
15404;SDS011;7801;48.124;11.590;2022-08-04T07:43:19;1.77;;;0.70;;
15404;SDS011;7801;48.124;11.590;2022-08-04T07:45:45;0.60;;;0.60;;
15404;SDS011;7801;48.124;11.590;2022-08-04T07:48:11;0.40;;;0.40;;
15404;SDS011;7801;48.124;11.590;2022-08-04T07:50:36;0.53;;;0.53;;
15404;SDS011;7801;48.124;11.590;2022-08-04T07:53:06;0.43;;;0.43;;
15404;SDS011;7801;48.124;11.590;2022-08-04T07:55:31;0.70;;;0.70;;
15404;SDS011;7801;48.124;11.590;2022-08-04T07:57:56;0.77;;;0.77;;
15404;SDS011;7801;48.124;11.590;2022-08-04T08:00:22;0.80;;;0.80;;
15404;SDS011;7801;48.124;11.590;2022-08-04T08:02:48;2.20;;;0.97;;
15404;SDS011;7801;48.124;11.590;2022-08-04T08:05:15;1.23;;;1.23;;
15404;SDS011;7801;48.124;11.590;2022-08-04T08:07:49;0.83;;;0.83;;
15404;SDS011;7801;48.124;11.590;2022-08-04T08:10:15;0.80;;;0.80;;
15404;SDS011;7801;48.124;11.590;2022-08-04T08:12:42;4.53;;;1.43;;
15404;SDS011;7801;48.124;11.590;2022-08-04T08:15:09;1.13;;;1.07;;
15404;SDS011;7801;48.124;11.590;2022-08-04T08:17:38;1.03;;;1.03;;
15404;SDS011;7801;48.124;11.590;2022-08-04T08:20:07;0.37;;;0.37;;
15404;SDS011;7801;48.124;11.590;2022-08-04T08:22:34;0.57;;;0.57;;
15404;SDS011;7801;48.124;11.590;2022-08-04T08:25:01;0.90;;;0.90;;
15404;SDS011;7801;48.124;11.590;2022-08-04T08:27:26;0.63;;;0.63;;
15404;SDS011;7801;48.124;11.590;2022-08-04T08:29:52;0.27;;;0.27;;
15404;SDS011;7801;48.124;11.590;2022-08-04T08:32:18;0.73;;;0.73;;
15404;SDS011;7801;48.124;11.590;2022-08-04T08:34:44;0.50;;;0.50;;
15404;SDS011;7801;48.124;11.590;2022-08-04T08:45:58;0.60;;;0.60;;
15404;SDS011;7801;48.124;11.590;2022-08-04T08:49:11;0.40;;;0.40;;
15404;SDS011;7801;48.124;11.590;2022-08-04T09:03:37;1.17;;;1.17;;
15404;SDS011;7801;48.124;11.590;2022-08-04T09:06:37;0.63;;;0.63;;
15404;SDS011;7801;48.124;11.590;2022-08-04T09:09:10;0.63;;;0.63;;
15404;SDS011;7801;48.124;11.590;2022-08-04T09:12:04;0.70;;;0.70;;
15404;SDS011;7801;48.124;11.590;2022-08-04T09:14:37;0.80;;;0.80;;
15404;SDS011;7801;48.124;11.590;2022-08-04T09:17:17;1.23;;;0.90;;
15404;SDS011;7801;48.124;11.590;2022-08-04T09:19:51;0.57;;;0.57;;
15404;SDS011;7801;48.124;11.590;2022-08-04T09:22:37;0.43;;;0.43;;
15404;SDS011;7801;48.124;11.590;2022-08-04T09:27:57;2.43;;;1.33;;
15404;SDS011;7801;48.124;11.590;2022-08-04T09:30:37;1.43;;;1.43;;
15404;SDS011;7801;48.124;11.590;2022-08-04T09:33:17;0.50;;;0.50;;
15404;SDS011;7801;48.124;11.590;2022-08-04T09:42:08;0.70;;;0.70;;
15404;SDS011;7801;48.124;11.590;2022-08-04T09:44:46;0.70;;;0.70;;
15404;SDS011;7801;48.124;11.590;2022-08-04T09:47:24;0.73;;;0.73;;
15404;SDS011;7801;48.124;11.590;2022-08-04T09:52:40;0.40;;;0.40;;
15404;SDS011;7801;48.124;11.590;2022-08-04T10:01:09;0.70;;;0.70;;
15404;SDS011;7801;48.124;11.590;2022-08-04T10:03:40;2.73;;;0.90;;
15404;SDS011;7801;48.124;11.590;2022-08-04T10:09:11;0.90;;;0.90;;
15404;SDS011;7801;48.124;11.590;2022-08-04T10:12:34;0.60;;;0.60;;
15404;SDS011;7801;48.124;11.590;2022-08-04T10:14:47;0.30;;;0.30;;
15404;SDS011;7801;48.124;11.590;2022-08-04T10:20:40;0.47;;;0.47;;
15404;SDS011;7801;48.124;11.590;2022-08-04T10:23:00;0.20;;;0.20;;
15404;SDS011;7801;48.124;11.590;2022-08-04T10:28:34;0.53;;;0.53;;
15404;SDS011;7801;48.124;11.590;2022-08-04T10:31:07;0.47;;;0.47;;
15404;SDS011;7801;48.124;11.590;2022-08-04T10:33:41;0.70;;;0.70;;
15404;SDS011;7801;48.124;11.590;2022-08-04T10:36:15;0.80;;;0.80;;
15404;SDS011;7801;48.124;11.590;2022-08-04T10:38:49;0.50;;;0.50;;
15404;SDS011;7801;48.124;11.590;2022-08-04T10:41:26;0.43;;;0.43;;
15404;SDS011;7801;48.124;11.590;2022-08-04T10:44:08;6.67;;;0.67;;
15404;SDS011;7801;48.124;11.590;2022-08-04T10:46:51;0.73;;;0.67;;
15404;SDS011;7801;48.124;11.590;2022-08-04T10:52:00;0.60;;;0.60;;
15404;SDS011;7801;48.124;11.590;2022-08-04T10:54:42;1.03;;;1.03;;
15404;SDS011;7801;48.124;11.590;2022-08-04T10:59:48;0.43;;;0.43;;
15404;SDS011;7801;48.124;11.590;2022-08-04T11:02:51;0.57;;;0.57;;
15404;SDS011;7801;48.124;11.590;2022-08-04T11:08:26;0.83;;;0.70;;
15404;SDS011;7801;48.124;11.590;2022-08-04T11:17:14;0.30;;;0.30;;
15404;SDS011;7801;48.124;11.590;2022-08-04T11:22:35;0.70;;;0.70;;
15404;SDS011;7801;48.124;11.590;2022-08-04T11:25:18;4.20;;;0.77;;
15404;SDS011;7801;48.124;11.590;2022-08-04T11:30:37;0.57;;;0.57;;
15404;SDS011;7801;48.124;11.590;2022-08-04T11:37:05;0.63;;;0.63;;
15404;SDS011;7801;48.124;11.590;2022-08-04T11:44:48;0.60;;;0.60;;
15404;SDS011;7801;48.124;11.590;2022-08-04T11:50:11;0.40;;;0.40;;
15404;SDS011;7801;48.124;11.590;2022-08-04T11:52:53;0.43;;;0.43;;
15404;SDS011;7801;48.124;11.590;2022-08-04T11:55:21;0.30;;;0.30;;
15404;SDS011;7801;48.124;11.590;2022-08-04T11:57:51;0.57;;;0.57;;
15404;SDS011;7801;48.124;11.590;2022-08-04T12:00:16;0.33;;;0.33;;
15404;SDS011;7801;48.124;11.590;2022-08-04T12:05:45;0.67;;;0.67;;
15404;SDS011;7801;48.124;11.590;2022-08-04T12:14:37;0.60;;;0.60;;
15404;SDS011;7801;48.124;11.590;2022-08-04T12:17:03;0.80;;;0.70;;
15404;SDS011;7801;48.124;11.590;2022-08-04T12:20:03;0.30;;;0.30;;
15404;SDS011;7801;48.124;11.590;2022-08-04T12:22:23;0.57;;;0.57;;
15404;SDS011;7801;48.124;11.590;2022-08-04T12:24:58;0.97;;;0.90;;
15404;SDS011;7801;48.124;11.590;2022-08-04T12:27:35;0.80;;;0.80;;
15404;SDS011;7801;48.124;11.590;2022-08-04T12:30:21;0.20;;;0.20;;
15404;SDS011;7801;48.124;11.590;2022-08-04T12:32:51;0.27;;;0.27;;
15404;SDS011;7801;48.124;11.590;2022-08-04T12:38:05;0.67;;;0.67;;
15404;SDS011;7801;48.124;11.590;2022-08-04T12:40:37;0.73;;;0.70;;
15404;SDS011;7801;48.124;11.590;2022-08-04T12:43:40;0.70;;;0.70;;
15404;SDS011;7801;48.124;11.590;2022-08-04T12:46:06;3.30;;;0.77;;
15404;SDS011;7801;48.124;11.590;2022-08-04T12:48:34;0.73;;;0.70;;
15404;SDS011;7801;48.124;11.590;2022-08-04T12:51:08;0.40;;;0.40;;
15404;SDS011;7801;48.124;11.590;2022-08-04T12:53:36;0.20;;;0.20;;
15404;SDS011;7801;48.124;11.590;2022-08-04T12:56:05;0.57;;;0.57;;
15404;SDS011;7801;48.124;11.590;2022-08-04T12:58:42;0.60;;;0.60;;
15404;SDS011;7801;48.124;11.590;2022-08-04T13:01:18;0.40;;;0.40;;
15404;SDS011;7801;48.124;11.590;2022-08-04T13:03:50;0.40;;;0.40;;
15404;SDS011;7801;48.124;11.590;2022-08-04T13:06:23;0.63;;;0.63;;
15404;SDS011;7801;48.124;11.590;2022-08-04T13:09:09;0.43;;;0.43;;
15404;SDS011;7801;48.124;11.590;2022-08-04T13:11:40;0.47;;;0.47;;
15404;SDS011;7801;48.124;11.590;2022-08-04T13:14:06;0.30;;;0.30;;
15404;SDS011;7801;48.124;11.590;2022-08-04T13:16:36;0.50;;;0.50;;
15404;SDS011;7801;48.124;11.590;2022-08-04T13:19:03;0.40;;;0.40;;
15404;SDS011;7801;48.124;11.590;2022-08-04T13:21:31;0.67;;;0.43;;
15404;SDS011;7801;48.124;11.590;2022-08-04T13:24:06;0.60;;;0.60;;
15404;SDS011;7801;48.124;11.590;2022-08-04T13:26:35;0.93;;;0.87;;
15404;SDS011;7801;48.124;11.590;2022-08-04T13:29:05;0.63;;;0.63;;
15404;SDS011;7801;48.124;11.590;2022-08-04T13:31:33;0.43;;;0.43;;
15404;SDS011;7801;48.124;11.590;2022-08-04T13:34:02;0.50;;;0.50;;
15404;SDS011;7801;48.124;11.590;2022-08-04T13:36:33;0.33;;;0.33;;
15404;SDS011;7801;48.124;11.590;2022-08-04T13:39:16;0.37;;;0.37;;
15404;SDS011;7801;48.124;11.590;2022-08-04T13:41:47;0.80;;;0.80;;
15404;SDS011;7801;48.124;11.590;2022-08-04T13:44:18;0.53;;;0.53;;
15404;SDS011;7801;48.124;11.590;2022-08-04T13:46:46;1.20;;;0.60;;
15404;SDS011;7801;48.124;11.590;2022-08-04T13:49:16;0.63;;;0.63;;
15404;SDS011;7801;48.124;11.590;2022-08-04T13:51:51;0.53;;;0.53;;
15404;SDS011;7801;48.124;11.590;2022-08-04T13:54:18;0.53;;;0.53;;
15404;SDS011;7801;48.124;11.590;2022-08-04T13:56:45;0.80;;;0.80;;
15404;SDS011;7801;48.124;11.590;2022-08-04T13:59:13;4.30;;;0.80;;
15404;SDS011;7801;48.124;11.590;2022-08-04T14:01:42;0.30;;;0.30;;
15404;SDS011;7801;48.124;11.590;2022-08-04T14:04:11;0.40;;;0.40;;
15404;SDS011;7801;48.124;11.590;2022-08-04T14:06:52;1.03;;;1.03;;
15404;SDS011;7801;48.124;11.590;2022-08-04T14:09:23;0.53;;;0.53;;
15404;SDS011;7801;48.124;11.590;2022-08-04T14:11:51;0.50;;;0.50;;
15404;SDS011;7801;48.124;11.590;2022-08-04T14:16:58;0.70;;;0.70;;
15404;SDS011;7801;48.124;11.590;2022-08-04T14:30:05;1.27;;;0.97;;
15404;SDS011;7801;48.124;11.590;2022-08-04T14:32:32;0.60;;;0.53;;
15404;SDS011;7801;48.124;11.590;2022-08-04T14:34:58;0.27;;;0.27;;
15404;SDS011;7801;48.124;11.590;2022-08-04T14:37:35;0.57;;;0.50;;
15404;SDS011;7801;48.124;11.590;2022-08-04T14:40:00;0.67;;;0.50;;
15404;SDS011;7801;48.124;11.590;2022-08-04T14:42:44;1.87;;;0.50;;
15404;SDS011;7801;48.124;11.590;2022-08-04T14:45:12;0.37;;;0.37;;
15404;SDS011;7801;48.124;11.590;2022-08-04T14:47:41;0.67;;;0.40;;
15404;SDS011;7801;48.124;11.590;2022-08-04T14:50:13;0.60;;;0.60;;
15404;SDS011;7801;48.124;11.590;2022-08-04T14:52:39;0.50;;;0.50;;
15404;SDS011;7801;48.124;11.590;2022-08-04T14:55:16;0.40;;;0.40;;
15404;SDS011;7801;48.124;11.590;2022-08-04T14:57:46;0.50;;;0.50;;
15404;SDS011;7801;48.124;11.590;2022-08-04T15:00:13;0.30;;;0.30;;
15404;SDS011;7801;48.124;11.590;2022-08-04T15:02:57;0.67;;;0.67;;
15404;SDS011;7801;48.124;11.590;2022-08-04T15:05:25;0.53;;;0.53;;
15404;SDS011;7801;48.124;11.590;2022-08-04T15:07:54;0.60;;;0.60;;
15404;SDS011;7801;48.124;11.590;2022-08-04T15:10:19;0.93;;;0.93;;
15404;SDS011;7801;48.124;11.590;2022-08-04T15:12:47;0.50;;;0.50;;
15404;SDS011;7801;48.124;11.590;2022-08-04T15:15:12;0.47;;;0.47;;
15404;SDS011;7801;48.124;11.590;2022-08-04T15:17:39;0.43;;;0.43;;
15404;SDS011;7801;48.124;11.590;2022-08-04T15:20:05;0.53;;;0.53;;
15404;SDS011;7801;48.124;11.590;2022-08-04T15:22:31;0.60;;;0.60;;
15404;SDS011;7801;48.124;11.590;2022-08-04T15:24:57;0.50;;;0.50;;
15404;SDS011;7801;48.124;11.590;2022-08-04T15:27:24;0.40;;;0.40;;
15404;SDS011;7801;48.124;11.590;2022-08-04T15:30:02;0.93;;;0.93;;
15404;SDS011;7801;48.124;11.590;2022-08-04T15:32:33;0.50;;;0.50;;
15404;SDS011;7801;48.124;11.590;2022-08-04T15:35:10;0.47;;;0.47;;
15404;SDS011;7801;48.124;11.590;2022-08-04T15:40:47;0.57;;;0.57;;
15404;SDS011;7801;48.124;11.590;2022-08-04T15:46:08;0.67;;;0.67;;
15404;SDS011;7801;48.124;11.590;2022-08-04T15:48:34;1.63;;;0.90;;
15404;SDS011;7801;48.124;11.590;2022-08-04T15:51:03;0.80;;;0.80;;
15404;SDS011;7801;48.124;11.590;2022-08-04T15:58:53;0.27;;;0.27;;
15404;SDS011;7801;48.124;11.590;2022-08-04T16:01:40;0.33;;;0.33;;
15404;SDS011;7801;48.124;11.590;2022-08-04T16:04:24;0.33;;;0.33;;
15404;SDS011;7801;48.124;11.590;2022-08-04T16:06:49;0.80;;;0.80;;
15404;SDS011;7801;48.124;11.590;2022-08-04T16:09:22;0.30;;;0.30;;
15404;SDS011;7801;48.124;11.590;2022-08-04T16:11:49;0.23;;;0.23;;
15404;SDS011;7801;48.124;11.590;2022-08-04T16:14:15;1.60;;;0.60;;
15404;SDS011;7801;48.124;11.590;2022-08-04T16:24:20;0.80;;;0.80;;
15404;SDS011;7801;48.124;11.590;2022-08-04T16:26:58;0.80;;;0.67;;
15404;SDS011;7801;48.124;11.590;2022-08-04T16:29:25;4.43;;;0.50;;
15404;SDS011;7801;48.124;11.590;2022-08-04T16:34:37;0.83;;;0.70;;
15404;SDS011;7801;48.124;11.590;2022-08-04T16:37:07;0.30;;;0.30;;
15404;SDS011;7801;48.124;11.590;2022-08-04T16:39:34;0.50;;;0.50;;
15404;SDS011;7801;48.124;11.590;2022-08-04T16:42:12;0.73;;;0.73;;
15404;SDS011;7801;48.124;11.590;2022-08-04T16:45:37;0.80;;;0.50;;
15404;SDS011;7801;48.124;11.590;2022-08-04T16:50:11;0.60;;;0.27;;
15404;SDS011;7801;48.124;11.590;2022-08-04T16:52:44;0.70;;;0.70;;
15404;SDS011;7801;48.124;11.590;2022-08-04T16:55:15;0.60;;;0.60;;
15404;SDS011;7801;48.124;11.590;2022-08-04T16:57:46;0.50;;;0.50;;
15404;SDS011;7801;48.124;11.590;2022-08-04T17:00:13;0.53;;;0.53;;
15404;SDS011;7801;48.124;11.590;2022-08-04T17:02:39;0.47;;;0.47;;
15404;SDS011;7801;48.124;11.590;2022-08-04T17:05:05;0.40;;;0.40;;
15404;SDS011;7801;48.124;11.590;2022-08-04T17:07:51;1.07;;;1.07;;
15404;SDS011;7801;48.124;11.590;2022-08-04T17:10:18;0.50;;;0.50;;
15404;SDS011;7801;48.124;11.590;2022-08-04T17:12:54;0.83;;;0.73;;
15404;SDS011;7801;48.124;11.590;2022-08-04T17:15:20;0.63;;;0.63;;
15404;SDS011;7801;48.124;11.590;2022-08-04T17:17:47;0.97;;;0.97;;
15404;SDS011;7801;48.124;11.590;2022-08-04T17:20:12;0.67;;;0.67;;
15404;SDS011;7801;48.124;11.590;2022-08-04T17:22:38;0.70;;;0.70;;
15404;SDS011;7801;48.124;11.590;2022-08-04T17:25:04;0.60;;;0.60;;
15404;SDS011;7801;48.124;11.590;2022-08-04T17:27:30;0.50;;;0.50;;
15404;SDS011;7801;48.124;11.590;2022-08-04T17:29:56;0.80;;;0.80;;
15404;SDS011;7801;48.124;11.590;2022-08-04T17:32:21;0.60;;;0.60;;
15404;SDS011;7801;48.124;11.590;2022-08-04T17:34:50;0.73;;;0.73;;
15404;SDS011;7801;48.124;11.590;2022-08-04T17:37:19;0.97;;;0.97;;
15404;SDS011;7801;48.124;11.590;2022-08-04T17:39:48;0.83;;;0.83;;
15404;SDS011;7801;48.124;11.590;2022-08-04T17:42:26;0.67;;;0.67;;
15404;SDS011;7801;48.124;11.590;2022-08-04T17:45:06;0.87;;;0.87;;
15404;SDS011;7801;48.124;11.590;2022-08-04T17:47:33;0.73;;;0.73;;
15404;SDS011;7801;48.124;11.590;2022-08-04T17:50:09;0.47;;;0.47;;
15404;SDS011;7801;48.124;11.590;2022-08-04T17:52:34;0.40;;;0.40;;
15404;SDS011;7801;48.124;11.590;2022-08-04T17:55:00;0.40;;;0.40;;
15404;SDS011;7801;48.124;11.590;2022-08-04T17:57:28;0.43;;;0.43;;
15404;SDS011;7801;48.124;11.590;2022-08-04T17:59:54;1.60;;;0.50;;
15404;SDS011;7801;48.124;11.590;2022-08-04T18:02:25;0.50;;;0.50;;
15404;SDS011;7801;48.124;11.590;2022-08-04T18:04:54;1.27;;;1.17;;
15404;SDS011;7801;48.124;11.590;2022-08-04T18:07:33;1.23;;;1.23;;
15404;SDS011;7801;48.124;11.590;2022-08-04T18:10:03;0.40;;;0.40;;
15404;SDS011;7801;48.124;11.590;2022-08-04T18:12:29;1.10;;;1.10;;
15404;SDS011;7801;48.124;11.590;2022-08-04T18:15:03;0.70;;;0.70;;
15404;SDS011;7801;48.124;11.590;2022-08-04T18:17:42;0.90;;;0.90;;
15404;SDS011;7801;48.124;11.590;2022-08-04T18:20:15;0.63;;;0.63;;
15404;SDS011;7801;48.124;11.590;2022-08-04T18:22:48;4.33;;;1.03;;
15404;SDS011;7801;48.124;11.590;2022-08-04T18:25:15;1.00;;;1.00;;
15404;SDS011;7801;48.124;11.590;2022-08-04T18:27:54;1.07;;;1.07;;
15404;SDS011;7801;48.124;11.590;2022-08-04T18:30:21;0.40;;;0.40;;
15404;SDS011;7801;48.124;11.590;2022-08-04T18:32:50;0.60;;;0.60;;
15404;SDS011;7801;48.124;11.590;2022-08-04T18:35:18;0.83;;;0.83;;
15404;SDS011;7801;48.124;11.590;2022-08-04T18:37:45;1.87;;;1.13;;
15404;SDS011;7801;48.124;11.590;2022-08-04T18:40:11;3.33;;;3.07;;
15404;SDS011;7801;48.124;11.590;2022-08-04T18:42:37;2.07;;;1.93;;
15404;SDS011;7801;48.124;11.590;2022-08-04T18:45:03;12.33;;;10.87;;
15404;SDS011;7801;48.124;11.590;2022-08-04T18:47:30;4.13;;;3.90;;
15404;SDS011;7801;48.124;11.590;2022-08-04T18:49:55;10.33;;;9.53;;
15404;SDS011;7801;48.124;11.590;2022-08-04T18:52:22;7.53;;;6.93;;
15404;SDS011;7801;48.124;11.590;2022-08-04T18:54:48;4.90;;;4.63;;
15404;SDS011;7801;48.124;11.590;2022-08-04T18:57:17;2.77;;;2.23;;
15404;SDS011;7801;48.124;11.590;2022-08-04T18:59:44;6.07;;;5.60;;
15404;SDS011;7801;48.124;11.590;2022-08-04T19:02:09;3.60;;;2.63;;
15404;SDS011;7801;48.124;11.590;2022-08-04T19:04:35;2.47;;;2.37;;
15404;SDS011;7801;48.124;11.590;2022-08-04T19:07:00;2.63;;;2.50;;
15404;SDS011;7801;48.124;11.590;2022-08-04T19:09:25;3.47;;;2.97;;
15404;SDS011;7801;48.124;11.590;2022-08-04T19:11:51;2.80;;;2.70;;
15404;SDS011;7801;48.124;11.590;2022-08-04T19:14:16;2.43;;;2.23;;
15404;SDS011;7801;48.124;11.590;2022-08-04T19:16:42;1.83;;;1.77;;
15404;SDS011;7801;48.124;11.590;2022-08-04T19:19:07;2.00;;;1.90;;
15404;SDS011;7801;48.124;11.590;2022-08-04T19:21:35;1.80;;;1.80;;
15404;SDS011;7801;48.124;11.590;2022-08-04T19:24:00;1.63;;;1.60;;
15404;SDS011;7801;48.124;11.590;2022-08-04T19:26:26;0.90;;;0.90;;
15404;SDS011;7801;48.124;11.590;2022-08-04T19:28:53;0.90;;;0.90;;
15404;SDS011;7801;48.124;11.590;2022-08-04T19:31:18;1.83;;;1.73;;
15404;SDS011;7801;48.124;11.590;2022-08-04T19:33:44;1.10;;;1.10;;
15404;SDS011;7801;48.124;11.590;2022-08-04T19:36:10;1.63;;;1.53;;
15404;SDS011;7801;48.124;11.590;2022-08-04T19:38:36;1.27;;;1.27;;
15404;SDS011;7801;48.124;11.590;2022-08-04T19:41:06;1.90;;;1.10;;
15404;SDS011;7801;48.124;11.590;2022-08-04T19:43:31;0.87;;;0.87;;